Time;durP1;ratioP1;P1;durP2;ratioP2;P2;SDS_P1;SDS_P2;PMS_P1;PMS_P2;Temp;Humidity;BMP_temperature;BMP_pressure;BME280_temperature;BME280_humidity;BME280_pressure;Samples;Min_cycle;Max_cycle;Signal;HPM_P1;HPM_P2
2022/08/16 00:00:49;;;;;;;2.00;1.80;;;31.40;58.30;;;;;;5135457;27;20454;-65
2022/08/16 00:03:22;;;;;;;2.07;1.93;;;31.40;58.20;;;;;;5107280;27;20481;-66
2022/08/16 00:05:52;;;;;;;1.60;1.50;;;31.40;58.30;;;;;;5137840;27;20482;-66
2022/08/16 00:08:26;;;;;;;1.60;1.50;;;31.30;57.60;;;;;;5143900;27;20470;-65
2022/08/16 00:11:06;;;;;;;2.10;1.80;;;31.20;57.90;;;;;;5131368;27;20453;-65
2022/08/16 00:13:45;;;;;;;2.20;1.90;;;31.10;58.00;;;;;;5128947;27;20452;-65
2022/08/16 00:16:26;;;;;;;1.60;1.50;;;31.10;58.90;;;;;;5139457;27;20830;-65
2022/08/16 00:19:17;;;;;;;1.50;1.40;;;31.10;58.80;;;;;;5143592;27;20496;-65
2022/08/16 00:21:52;;;;;;;1.50;1.37;;;31.20;59.70;;;;;;5128822;27;20475;-65
2022/08/16 00:24:30;;;;;;;2.00;1.90;;;31.10;59.20;;;;;;5131038;27;20566;-65
2022/08/16 00:27:04;;;;;;;1.77;1.67;;;31.20;59.10;;;;;;5139497;27;20473;-66
2022/08/16 00:29:37;;;;;;;2.43;2.23;;;31.10;59.40;;;;;;5123290;28;20474;-65
2022/08/16 00:32:11;;;;;;;2.00;1.90;;;31.20;60.30;;;;;;5137964;27;20543;-65
2022/08/16 00:34:47;;;;;;;3.07;2.77;;;31.10;59.20;;;;;;5143058;27;20452;-65
2022/08/16 00:37:24;;;;;;;1.50;1.40;;;31.10;59.00;;;;;;5131988;27;20441;-65
2022/08/16 00:40:18;;;;;;;1.60;1.50;;;31.00;57.50;;;;;;5127491;27;20436;-65
2022/08/16 00:43:06;;;;;;;2.20;2.00;;;30.90;57.70;;;;;;5118771;28;20468;-65
2022/08/16 00:45:46;;;;;;;2.70;2.50;;;31.00;57.70;;;;;;5109393;27;20516;-66
2022/08/16 00:48:30;;;;;;;1.70;1.53;;;31.00;57.10;;;;;;5121327;27;20824;-66
2022/08/16 00:51:14;;;;;;;1.30;1.20;;;31.00;57.50;;;;;;5117801;27;20454;-65
2022/08/16 00:53:47;;;;;;;1.20;1.10;;;31.00;57.00;;;;;;5143292;27;20546;-65
2022/08/16 00:56:20;;;;;;;1.20;1.20;;;30.90;56.40;;;;;;5122430;27;20539;-66
2022/08/16 00:59:13;;;;;;;1.83;1.63;;;30.80;57.10;;;;;;5128170;27;20582;-65
2022/08/16 01:01:45;;;;;;;1.40;1.30;;;30.60;57.90;;;;;;5114778;28;20478;-66
2022/08/16 01:04:22;;;;;;;1.67;1.50;;;30.70;58.20;;;;;;5118557;28;20478;-65
2022/08/16 01:07:00;;;;;;;1.00;1.00;;;30.70;57.90;;;;;;5107325;28;20499;-66
2022/08/16 01:09:33;;;;;;;1.40;1.30;;;30.70;56.90;;;;;;5114231;28;20444;-66
2022/08/16 01:12:09;;;;;;;1.50;1.40;;;30.80;56.90;;;;;;5121123;27;20451;-67
2022/08/16 01:15:00;;;;;;;1.73;1.63;;;30.70;56.70;;;;;;5113420;28;20463;-66
2022/08/16 01:17:34;;;;;;;1.07;1.07;;;30.50;57.70;;;;;;5118682;28;20528;-65
2022/08/16 01:20:11;;;;;;;2.50;2.30;;;30.50;57.30;;;;;;5126943;28;20442;-65
2022/08/16 01:23:08;;;;;;;2.03;1.83;;;30.30;58.10;;;;;;5113354;28;20457;-66
2022/08/16 01:25:44;;;;;;;4.17;3.83;;;30.30;58.30;;;;;;5121687;28;20562;-65
2022/08/16 01:28:35;;;;;;;3.43;3.07;;;30.30;59.00;;;;;;5109157;28;20583;-67
2022/08/16 01:31:15;;;;;;;2.90;2.60;;;30.30;58.50;;;;;;5122991;28;20486;-65
2022/08/16 01:33:47;;;;;;;2.40;2.10;;;30.40;58.60;;;;;;5126451;28;20464;-65
2022/08/16 01:36:18;;;;;;;1.80;1.70;;;30.40;58.10;;;;;;5121950;28;20448;-67
2022/08/16 01:38:55;;;;;;;1.70;1.60;;;30.30;58.50;;;;;;5122122;28;20961;-67
2022/08/16 01:41:30;;;;;;;1.67;1.57;;;30.20;59.60;;;;;;5125652;27;20471;-65
2022/08/16 01:44:01;;;;;;;1.80;1.70;;;30.20;59.80;;;;;;5126047;28;20473;-66
2022/08/16 01:46:34;;;;;;;1.70;1.60;;;30.20;59.80;;;;;;5124661;27;20501;-65
2022/08/16 01:49:11;;;;;;;1.70;1.60;;;30.10;60.10;;;;;;5125556;27;20509;-66
2022/08/16 01:51:45;;;;;;;1.30;1.20;;;29.80;59.90;;;;;;5113615;27;20470;-64
2022/08/16 01:54:16;;;;;;;1.50;1.40;;;29.70;60.30;;;;;;5121672;27;20455;-63
2022/08/16 01:57:02;;;;;;;1.50;1.40;;;29.60;60.80;;;;;;5125223;27;20452;-64
2022/08/16 01:59:35;;;;;;;1.57;1.47;;;29.50;60.70;;;;;;5119728;27;20449;-64
2022/08/16 02:02:06;;;;;;;1.43;1.33;;;29.50;60.00;;;;;;5122429;27;20468;-65
2022/08/16 02:04:56;;;;;;;1.40;1.30;;;29.50;58.20;;;;;;5114009;27;20538;-65
2022/08/16 02:07:28;;;;;;;0.83;0.83;;;29.50;58.30;;;;;;5115070;27;20486;-64
2022/08/16 02:09:59;;;;;;;1.40;1.30;;;29.50;57.60;;;;;;5118126;27;20535;-63
2022/08/16 02:12:32;;;;;;;2.37;1.43;;;29.40;57.50;;;;;;5119579;27;20559;-63
2022/08/16 02:15:23;;;;;;;0.70;0.70;;;29.20;58.10;;;;;;5125785;27;20915;-63
2022/08/16 02:17:56;;;;;;;1.50;1.40;;;29.10;59.20;;;;;;5120335;27;20452;-63
2022/08/16 02:20:28;;;;;;;1.43;1.33;;;28.90;60.20;;;;;;5126054;27;20445;-64
2022/08/16 02:23:01;;;;;;;1.43;1.10;;;28.80;60.90;;;;;;5122787;27;20460;-64
2022/08/16 02:25:35;;;;;;;1.60;1.50;;;28.70;61.80;;;;;;5123920;27;20545;-64
2022/08/16 02:28:25;;;;;;;1.40;1.30;;;28.60;62.90;;;;;;5117009;27;20442;-64
2022/08/16 02:30:58;;;;;;;1.27;1.13;;;28.50;63.70;;;;;;5127749;27;20471;-64
2022/08/16 02:33:30;;;;;;;2.17;1.47;;;28.40;64.60;;;;;;5108561;28;20447;-64
2022/08/16 02:36:13;;;;;;;4.03;1.70;;;28.30;65.80;;;;;;5122992;27;20505;-65
2022/08/16 02:39:05;;;;;;;1.70;1.57;;;28.30;66.20;;;;;;5120763;27;20954;-65
2022/08/16 02:41:38;;;;;;;1.53;1.43;;;28.20;67.10;;;;;;5124357;27;20852;-65
2022/08/16 02:44:13;;;;;;;1.73;1.50;;;28.20;68.00;;;;;;5113816;28;20474;-65
2022/08/16 02:46:46;;;;;;;1.67;1.57;;;28.10;68.90;;;;;;5121589;28;20569;-65
2022/08/16 02:49:22;;;;;;;2.07;1.80;;;28.00;69.40;;;;;;5120969;27;20594;-66
2022/08/16 02:52:13;;;;;;;1.73;1.63;;;27.90;70.30;;;;;;5115266;27;20447;-64
2022/08/16 02:54:58;;;;;;;2.30;2.10;;;27.60;71.30;;;;;;5124939;28;20449;-65
2022/08/16 02:57:29;;;;;;;2.10;1.90;;;27.50;72.20;;;;;;5130377;27;20454;-65
2022/08/16 03:00:06;;;;;;;3.63;1.80;;;27.40;73.40;;;;;;5140753;27;20447;-65
2022/08/16 03:02:57;;;;;;;1.73;1.63;;;27.30;73.60;;;;;;5124488;27;20438;-66
2022/08/16 03:05:28;;;;;;;1.90;1.80;;;27.20;73.80;;;;;;5124788;28;20445;-65
2022/08/16 03:08:00;;;;;;;1.70;1.60;;;27.10;75.00;;;;;;5115225;27;20487;-65
2022/08/16 03:10:31;;;;;;;2.07;1.83;;;27.00;74.70;;;;;;5118409;27;20464;-65
2022/08/16 03:13:03;;;;;;;2.10;2.00;;;26.90;76.10;;;;;;5122193;28;20450;-66
2022/08/16 03:15:43;;;;;;;2.27;2.03;;;26.70;77.70;;;;;;5121538;27;20463;-65
2022/08/16 03:18:18;;;;;;;2.40;2.20;;;26.50;78.70;;;;;;5118253;27;20498;-66
2022/08/16 03:21:09;;;;;;;1.60;1.50;;;26.50;78.40;;;;;;5111418;28;20590;-65
2022/08/16 03:23:42;;;;;;;1.93;1.70;;;26.30;79.80;;;;;;5110344;28;20458;-66
2022/08/16 03:26:14;;;;;;;2.53;2.20;;;26.20;81.90;;;;;;5128229;27;20460;-65
2022/08/16 03:28:46;;;;;;;1.70;1.50;;;26.10;81.70;;;;;;5118734;27;20531;-65
2022/08/16 03:31:19;;;;;;;1.70;1.60;;;25.90;82.60;;;;;;5114539;27;20461;-66
2022/08/16 03:33:51;;;;;;;1.53;1.43;;;25.80;84.00;;;;;;5118446;27;20464;-66
2022/08/16 03:36:22;;;;;;;1.80;1.70;;;25.70;83.00;;;;;;5127782;27;20773;-66
2022/08/16 03:39:01;;;;;;;1.80;1.57;;;25.60;82.80;;;;;;5145056;27;20439;-67
2022/08/16 03:41:32;;;;;;;1.50;1.40;;;25.60;83.40;;;;;;5125231;27;20468;-66
2022/08/16 03:44:20;;;;;;;1.30;1.20;;;25.60;83.20;;;;;;5119799;27;20524;-67
2022/08/16 03:47:12;;;;;;;1.40;1.30;;;25.60;81.20;;;;;;5122291;27;20568;-65
2022/08/16 03:49:49;;;;;;;2.37;1.80;;;25.40;82.70;;;;;;5127533;27;20493;-66
2022/08/16 03:52:21;;;;;;;1.90;1.70;;;25.30;83.50;;;;;;5122904;27;20473;-66
2022/08/16 03:54:58;;;;;;;2.07;1.83;;;25.20;84.40;;;;;;5113661;27;20483;-67
2022/08/16 03:57:31;;;;;;;2.17;1.93;;;25.10;86.80;;;;;;5131218;27;20502;-66
2022/08/16 04:00:12;;;;;;;1.80;1.70;;;25.10;85.70;;;;;;5144593;27;20530;-68
2022/08/16 04:03:07;;;;;;;1.87;1.77;;;25.00;85.20;;;;;;5141458;27;20499;-66
2022/08/16 04:05:39;;;;;;;1.77;1.37;;;24.90;84.70;;;;;;5129860;27;20464;-67
2022/08/16 04:08:13;;;;;;;1.90;1.40;;;24.80;83.90;;;;;;5120435;27;20491;-66
2022/08/16 04:10:54;;;;;;;1.30;1.10;;;24.70;84.20;;;;;;5118087;27;20459;-66
2022/08/16 04:13:27;;;;;;;1.60;1.50;;;24.60;84.60;;;;;;5120925;27;20465;-67
2022/08/16 04:16:18;;;;;;;1.07;1.00;;;24.50;84.00;;;;;;5122045;27;20438;-66
2022/08/16 04:18:59;;;;;;;1.30;1.20;;;24.50;81.80;;;;;;5110922;28;20494;-67
2022/08/16 04:21:34;;;;;;;1.93;1.17;;;24.40;81.30;;;;;;5121923;27;20490;-68
2022/08/16 04:24:16;;;;;;;1.07;0.93;;;24.30;81.20;;;;;;5143484;27;20443;-67
2022/08/16 04:26:48;;;;;;;0.97;0.90;;;24.20;79.90;;;;;;5125473;27;20459;-66
2022/08/16 04:29:19;;;;;;;0.90;0.87;;;24.20;76.70;;;;;;5140912;27;20452;-67
2022/08/16 04:31:54;;;;;;;0.70;0.60;;;24.20;76.20;;;;;;5125240;27;20468;-67
2022/08/16 04:34:30;;;;;;;1.00;0.80;;;24.20;76.00;;;;;;5127645;27;20495;-66
2022/08/16 04:37:03;;;;;;;1.60;0.90;;;24.10;77.10;;;;;;5113668;27;20477;-68
2022/08/16 04:39:35;;;;;;;0.90;0.80;;;24.00;76.50;;;;;;5119502;28;20529;-66
2022/08/16 04:42:17;;;;;;;0.80;0.70;;;24.00;76.60;;;;;;5127389;27;20458;-65
2022/08/16 04:44:58;;;;;;;0.80;0.80;;;24.00;75.90;;;;;;5119134;27;20951;-66
2022/08/16 04:47:31;;;;;;;1.20;0.90;;;23.80;76.90;;;;;;5121599;28;20493;-65
2022/08/16 04:50:09;;;;;;;0.63;0.63;;;23.80;76.70;;;;;;5128325;27;20537;-65
2022/08/16 04:52:46;;;;;;;2.13;0.80;;;23.70;77.00;;;;;;5118685;28;20465;-65
2022/08/16 04:55:21;;;;;;;0.80;0.80;;;23.50;76.80;;;;;;5122635;28;20459;-65
2022/08/16 04:58:08;;;;;;;0.70;0.70;;;23.60;76.70;;;;;;5119962;28;20899;-65
2022/08/16 05:00:59;;;;;;;1.60;0.97;;;23.50;76.50;;;;;;5122090;27;20457;-65
2022/08/16 05:03:29;;;;;;;0.67;0.60;;;23.40;76.80;;;;;;5126374;28;20482;-65
2022/08/16 05:06:02;;;;;;;0.60;0.60;;;23.40;77.50;;;;;;5137380;27;20446;-65
2022/08/16 05:08:38;;;;;;;0.83;0.83;;;23.20;78.00;;;;;;5118818;28;20504;-66
2022/08/16 05:11:17;;;;;;;1.17;0.93;;;23.20;78.20;;;;;;5123311;28;20487;-64
2022/08/16 05:13:50;;;;;;;0.70;0.70;;;23.10;78.60;;;;;;5131605;27;20559;-65
2022/08/16 05:16:22;;;;;;;1.97;1.87;;;23.00;79.20;;;;;;5128520;27;20474;-65
2022/08/16 05:18:56;;;;;;;0.80;0.80;;;22.90;79.40;;;;;;5124448;28;20524;-65
2022/08/16 05:21:32;;;;;;;0.83;0.57;;;22.90;80.10;;;;;;5121630;27;20853;-65
2022/08/16 05:24:08;;;;;;;1.30;1.00;;;22.80;80.60;;;;;;5120499;27;20453;-65
2022/08/16 05:26:40;;;;;;;1.30;0.90;;;22.80;80.60;;;;;;5123131;27;20480;-66
2022/08/16 05:29:20;;;;;;;1.13;0.90;;;22.80;80.60;;;;;;5132854;27;20571;-65
2022/08/16 05:32:12;;;;;;;1.00;1.00;;;22.70;81.40;;;;;;5126111;27;20545;-65
2022/08/16 05:35:06;;;;;;;1.50;1.00;;;22.70;81.60;;;;;;5145131;27;20432;-66
2022/08/16 05:37:42;;;;;;;0.60;0.60;;;22.50;83.40;;;;;;5130686;27;20532;-66
2022/08/16 05:40:14;;;;;;;1.00;0.90;;;22.50;83.30;;;;;;5138402;27;20468;-63
2022/08/16 05:42:47;;;;;;;0.60;0.60;;;22.40;83.70;;;;;;5121698;28;20472;-63
2022/08/16 05:45:18;;;;;;;0.83;0.60;;;22.30;84.40;;;;;;5125856;27;20457;-62
2022/08/16 05:47:52;;;;;;;0.90;0.90;;;22.30;85.50;;;;;;5125258;27;20501;-65
2022/08/16 05:50:30;;;;;;;1.00;0.90;;;22.20;85.10;;;;;;5131978;27;20444;-64
2022/08/16 05:53:17;;;;;;;0.73;0.73;;;22.20;85.90;;;;;;5131137;27;22081;-65
2022/08/16 05:55:51;;;;;;;0.77;0.70;;;22.10;86.30;;;;;;5116037;27;20529;-66
2022/08/16 05:58:22;;;;;;;0.77;0.60;;;22.00;86.70;;;;;;5125495;27;20476;-66
2022/08/16 06:01:04;;;;;;;0.90;0.70;;;21.90;87.50;;;;;;5117521;28;20460;-66
2022/08/16 06:03:39;;;;;;;1.33;1.10;;;21.90;88.10;;;;;;5123148;28;20667;-66
2022/08/16 06:06:22;;;;;;;0.70;0.70;;;21.90;88.90;;;;;;5124866;27;20480;-64
2022/08/16 06:08:59;;;;;;;0.90;0.80;;;21.70;89.00;;;;;;5141309;27;20502;-65
2022/08/16 06:11:30;;;;;;;0.60;0.60;;;21.70;90.20;;;;;;5145303;27;20471;-65
2022/08/16 06:14:09;;;;;;;0.60;0.60;;;21.60;90.10;;;;;;5126801;27;20453;-68
2022/08/16 06:16:40;;;;;;;0.60;0.60;;;21.60;90.40;;;;;;5121512;27;20464;-64
2022/08/16 06:19:11;;;;;;;0.60;0.60;;;21.50;90.50;;;;;;5130607;27;20492;-64
2022/08/16 06:21:43;;;;;;;1.37;0.73;;;21.50;90.60;;;;;;5137765;27;20503;-64
2022/08/16 06:24:15;;;;;;;0.60;0.60;;;21.40;91.10;;;;;;5135789;27;20448;-64
2022/08/16 06:27:06;;;;;;;0.90;0.57;;;21.40;91.10;;;;;;5144496;27;20460;-64
2022/08/16 06:29:37;;;;;;;0.53;0.53;;;21.40;91.70;;;;;;5145851;27;20793;-64
2022/08/16 06:32:08;;;;;;;0.70;0.60;;;21.30;91.70;;;;;;5130897;27;20549;-64
2022/08/16 06:34:56;;;;;;;0.80;0.80;;;21.30;92.40;;;;;;5124394;27;20450;-64
2022/08/16 06:37:31;;;;;;;0.80;0.63;;;21.30;92.50;;;;;;5127643;27;20460;-64
2022/08/16 06:40:09;;;;;;;0.87;0.80;;;21.20;92.90;;;;;;5130857;27;20969;-64
2022/08/16 06:42:44;;;;;;;0.50;0.47;;;21.10;93.00;;;;;;5124841;28;20445;-64
2022/08/16 06:45:26;;;;;;;0.70;0.57;;;21.10;93.70;;;;;;5125439;28;20438;-64
2022/08/16 06:47:58;;;;;;;0.70;0.70;;;21.00;94.00;;;;;;5124736;28;20986;-64
2022/08/16 06:50:29;;;;;;;1.27;0.80;;;20.90;94.70;;;;;;5120029;27;20507;-64
2022/08/16 06:53:02;;;;;;;0.93;0.80;;;20.90;94.90;;;;;;5122403;27;20434;-65
2022/08/16 06:55:41;;;;;;;0.80;0.57;;;20.80;95.40;;;;;;5111220;27;20491;-64
2022/08/16 06:58:12;;;;;;;0.50;0.50;;;20.80;95.80;;;;;;5121558;27;20453;-64
2022/08/16 07:00:51;;;;;;;0.67;0.67;;;20.70;96.40;;;;;;5129240;27;20533;-65
2022/08/16 07:03:23;;;;;;;0.70;0.70;;;20.60;97.10;;;;;;5123550;28;20538;-64
2022/08/16 07:06:00;;;;;;;1.90;0.70;;;20.60;97.50;;;;;;5111223;28;20461;-64
2022/08/16 07:08:32;;;;;;;0.60;0.50;;;20.60;98.50;;;;;;5123876;28;20496;-64
2022/08/16 07:11:05;;;;;;;0.70;0.70;;;20.50;98.50;;;;;;5119550;27;20865;-64
2022/08/16 07:13:38;;;;;;;0.63;0.40;;;20.50;99.20;;;;;;5135396;27;20536;-64
2022/08/16 07:16:29;;;;;;;0.77;0.77;;;20.40;99.60;;;;;;5109886;27;20466;-64
2022/08/16 07:19:00;;;;;;;1.10;0.80;;;20.40;99.90;;;;;;5123070;27;20954;-64
2022/08/16 07:21:31;;;;;;;0.63;0.63;;;20.40;99.90;;;;;;5125173;27;20458;-64
2022/08/16 07:24:24;;;;;;;0.60;0.60;;;20.40;99.90;;;;;;5137596;27;20453;-64
2022/08/16 07:27:01;;;;;;;0.70;0.70;;;20.30;99.90;;;;;;5115592;27;20584;-64
2022/08/16 07:29:38;;;;;;;0.40;0.40;;;20.40;99.90;;;;;;5140287;27;20503;-64
2022/08/16 07:32:09;;;;;;;0.83;0.60;;;20.40;99.90;;;;;;5123417;27;20470;-64
2022/08/16 07:34:40;;;;;;;0.60;0.60;;;20.30;99.90;;;;;;5115699;28;20474;-64
2022/08/16 07:37:18;;;;;;;2.50;0.70;;;20.20;99.90;;;;;;5115901;28;20575;-64
2022/08/16 07:39:52;;;;;;;1.20;0.80;;;20.20;99.90;;;;;;5118801;27;20488;-64
2022/08/16 07:42:25;;;;;;;0.60;0.60;;;20.10;99.90;;;;;;5112306;28;20836;-65
2022/08/16 07:45:05;;;;;;;2.00;0.90;;;20.00;99.90;;;;;;5132935;27;20586;-64
2022/08/16 07:47:39;;;;;;;0.60;0.50;;;19.90;99.90;;;;;;5122032;27;20465;-64
2022/08/16 07:50:12;;;;;;;0.50;0.50;;;19.90;99.90;;;;;;5129898;27;20557;-64
2022/08/16 07:53:03;;;;;;;1.57;0.63;;;19.90;99.90;;;;;;5120023;27;20444;-64
2022/08/16 07:55:34;;;;;;;0.60;0.57;;;19.90;99.90;;;;;;5124415;27;20468;-64
2022/08/16 07:58:19;;;;;;;0.50;0.40;;;19.90;99.90;;;;;;5129622;27;20507;-64
2022/08/16 08:01:05;;;;;;;0.73;0.60;;;19.80;99.90;;;;;;5124199;27;20449;-65
2022/08/16 08:03:42;;;;;;;0.70;0.53;;;19.80;99.90;;;;;;5108466;27;20588;-65
2022/08/16 08:06:18;;;;;;;0.50;0.50;;;19.70;99.90;;;;;;5132376;27;20450;-65
2022/08/16 08:08:49;;;;;;;1.00;0.50;;;19.60;99.90;;;;;;5143707;27;20448;-65
2022/08/16 08:11:28;;;;;;;0.50;0.50;;;19.60;99.90;;;;;;5136668;27;20463;-65
2022/08/16 08:14:01;;;;;;;0.70;0.67;;;19.60;99.90;;;;;;5125896;27;21023;-65
2022/08/16 08:16:36;;;;;;;0.57;0.50;;;19.60;99.90;;;;;;5114363;27;20447;-65
2022/08/16 08:19:14;;;;;;;0.50;0.50;;;19.60;99.90;;;;;;5125986;27;20466;-63
2022/08/16 08:21:46;;;;;;;0.50;0.47;;;19.50;99.90;;;;;;5127474;27;20449;-65
2022/08/16 08:24:33;;;;;;;0.60;0.50;;;19.50;99.90;;;;;;5125732;27;20464;-64
2022/08/16 08:27:07;;;;;;;0.60;0.50;;;19.50;99.90;;;;;;5131246;27;20487;-63
2022/08/16 08:29:39;;;;;;;1.47;0.80;;;19.60;99.90;;;;;;5112015;28;20632;-63
2022/08/16 08:32:11;;;;;;;0.70;0.70;;;19.50;99.90;;;;;;5128187;27;20459;-63
2022/08/16 08:35:02;;;;;;;0.83;0.63;;;19.50;99.90;;;;;;5111214;28;20473;-63
2022/08/16 08:37:34;;;;;;;0.70;0.60;;;19.40;99.90;;;;;;5131786;27;20484;-63
2022/08/16 08:40:26;;;;;;;0.73;0.63;;;19.40;99.90;;;;;;5122121;28;20460;-65
2022/08/16 08:42:58;;;;;;;0.60;0.57;;;19.30;99.90;;;;;;5117566;28;20542;-65
2022/08/16 08:45:43;;;;;;;0.60;0.50;;;19.30;99.90;;;;;;5135718;27;20468;-63
2022/08/16 08:48:19;;;;;;;0.67;0.60;;;19.30;99.90;;;;;;5133633;27;20454;-65
2022/08/16 08:51:05;;;;;;;0.60;0.50;;;19.30;99.90;;;;;;5122377;27;20528;-65
2022/08/16 08:53:38;;;;;;;0.90;0.50;;;19.30;99.90;;;;;;5121705;28;20461;-65
2022/08/16 08:56:09;;;;;;;0.47;0.40;;;19.30;99.90;;;;;;5120813;28;20461;-63
2022/08/16 08:58:54;;;;;;;0.60;0.60;;;19.20;99.90;;;;;;5121511;27;20468;-65
2022/08/16 09:01:32;;;;;;;0.70;0.70;;;19.20;99.90;;;;;;5121638;28;20545;-65
2022/08/16 09:04:12;;;;;;;1.27;0.77;;;19.10;99.90;;;;;;5108297;28;20501;-64
2022/08/16 09:06:46;;;;;;;1.20;0.70;;;19.10;99.90;;;;;;5123200;28;21027;-62
2022/08/16 09:09:17;;;;;;;0.80;0.60;;;19.00;99.90;;;;;;5117853;28;20457;-64
2022/08/16 09:11:48;;;;;;;0.60;0.60;;;19.00;99.90;;;;;;5118677;28;21084;-65
2022/08/16 09:14:37;;;;;;;0.70;0.70;;;19.00;99.90;;;;;;5112879;28;20520;-65
2022/08/16 09:17:21;;;;;;;0.50;0.40;;;19.00;99.90;;;;;;5120776;28;20541;-63
2022/08/16 09:20:14;;;;;;;0.53;0.53;;;19.00;99.90;;;;;;5115724;28;20450;-65
2022/08/16 09:22:45;;;;;;;0.70;0.57;;;18.90;99.90;;;;;;5118678;28;20513;-65
2022/08/16 09:25:21;;;;;;;0.70;0.70;;;18.90;99.90;;;;;;5116425;28;20448;-65
2022/08/16 09:28:04;;;;;;;0.50;0.50;;;18.80;99.90;;;;;;5120209;28;20560;-65
2022/08/16 09:30:39;;;;;;;0.83;0.73;;;18.80;99.90;;;;;;5108467;28;20497;-65
2022/08/16 09:33:19;;;;;;;0.80;0.60;;;18.80;99.90;;;;;;5117219;27;20506;-62
2022/08/16 09:35:51;;;;;;;0.60;0.50;;;18.80;99.90;;;;;;5137228;27;20529;-63
2022/08/16 09:38:24;;;;;;;0.67;0.40;;;18.80;99.90;;;;;;5106256;28;20473;-65
2022/08/16 09:41:02;;;;;;;0.80;0.73;;;18.70;99.90;;;;;;5115775;28;20461;-64
2022/08/16 09:43:34;;;;;;;0.70;0.60;;;18.70;99.90;;;;;;5109185;28;20437;-63
2022/08/16 09:46:26;;;;;;;0.60;0.60;;;18.60;99.90;;;;;;5108510;28;20925;-63
2022/08/16 09:49:19;;;;;;;0.70;0.60;;;18.60;99.90;;;;;;5109825;28;20469;-63
2022/08/16 09:51:52;;;;;;;0.70;0.60;;;18.60;99.90;;;;;;5107049;28;20468;-63
2022/08/16 09:54:26;;;;;;;0.77;0.60;;;18.50;99.90;;;;;;5120539;28;20545;-64
2022/08/16 09:57:01;;;;;;;0.70;0.70;;;18.50;99.90;;;;;;5112434;28;21097;-63
2022/08/16 09:59:33;;;;;;;1.00;0.90;;;18.50;99.90;;;;;;5115156;28;20493;-64
2022/08/16 10:02:08;;;;;;;0.93;0.60;;;18.50;99.90;;;;;;5116428;27;20927;-63
2022/08/16 10:04:59;;;;;;;0.70;0.50;;;18.50;99.90;;;;;;5125471;27;20601;-63
2022/08/16 10:07:32;;;;;;;0.60;0.40;;;18.40;99.90;;;;;;5122472;28;20465;-63
2022/08/16 10:10:24;;;;;;;0.90;0.70;;;18.40;99.90;;;;;;5111446;28;20496;-63
2022/08/16 10:13:14;;;;;;;0.67;0.67;;;18.30;99.90;;;;;;5124361;28;20467;-64
2022/08/16 10:15:47;;;;;;;0.63;0.57;;;18.40;99.90;;;;;;5122224;28;20461;-63
2022/08/16 10:18:26;;;;;;;0.63;0.63;;;18.40;99.90;;;;;;5114123;27;20483;-63
2022/08/16 10:21:18;;;;;;;0.80;0.80;;;18.40;99.90;;;;;;5137576;27;20467;-63
2022/08/16 10:23:53;;;;;;;0.60;0.60;;;18.40;99.90;;;;;;5124831;27;20540;-63
2022/08/16 10:26:25;;;;;;;0.80;0.77;;;18.40;99.90;;;;;;5134105;27;20432;-63
2022/08/16 10:29:16;;;;;;;0.90;0.80;;;18.40;99.90;;;;;;5121511;28;20424;-63
2022/08/16 10:31:50;;;;;;;0.83;0.83;;;18.30;99.90;;;;;;5121587;27;20496;-62
2022/08/16 10:34:23;;;;;;;1.23;0.93;;;18.30;99.90;;;;;;5119127;27;20556;-63
2022/08/16 10:37:03;;;;;;;1.20;1.10;;;18.30;99.90;;;;;;5124382;28;20575;-63
2022/08/16 10:39:34;;;;;;;1.37;0.90;;;18.20;99.90;;;;;;5123900;27;20466;-63
2022/08/16 10:42:11;;;;;;;1.10;0.93;;;18.20;99.90;;;;;;5124710;27;20427;-64
2022/08/16 10:44:43;;;;;;;0.93;0.80;;;18.20;99.90;;;;;;5123217;27;20481;-63
2022/08/16 10:47:24;;;;;;;1.23;0.97;;;18.20;99.90;;;;;;5134042;27;20435;-63
2022/08/16 10:49:58;;;;;;;1.30;1.20;;;18.20;99.90;;;;;;5123648;27;20447;-63
2022/08/16 10:52:32;;;;;;;0.80;0.80;;;18.20;99.90;;;;;;5133119;27;20456;-63
2022/08/16 10:55:11;;;;;;;1.50;1.03;;;18.20;99.90;;;;;;5129216;27;20501;-63
2022/08/16 10:58:02;;;;;;;1.13;1.00;;;18.20;99.90;;;;;;5123323;27;20462;-63
2022/08/16 11:00:41;;;;;;;1.20;1.00;;;18.20;99.90;;;;;;5113672;27;20933;-63
2022/08/16 11:03:15;;;;;;;1.27;1.17;;;18.10;99.90;;;;;;5113544;28;20559;-63
2022/08/16 11:06:07;;;;;;;1.57;1.17;;;18.00;99.90;;;;;;5123141;28;20408;-63
2022/08/16 11:08:42;;;;;;;1.13;1.00;;;18.00;99.90;;;;;;5119421;27;20841;-63
2022/08/16 11:11:16;;;;;;;1.10;1.00;;;18.00;99.90;;;;;;5125661;27;20484;-63
2022/08/16 11:13:51;;;;;;;1.10;1.00;;;17.90;99.90;;;;;;5126903;27;20462;-63
2022/08/16 11:16:40;;;;;;;1.33;1.23;;;17.90;99.90;;;;;;5112697;27;20469;-63
2022/08/16 11:19:31;;;;;;;0.70;0.70;;;17.90;99.90;;;;;;5130213;27;20458;-63
2022/08/16 11:22:22;;;;;;;1.20;1.10;;;17.80;99.90;;;;;;5121911;28;20535;-64
2022/08/16 11:25:17;;;;;;;1.37;1.00;;;17.80;99.90;;;;;;5119688;28;20526;-63
2022/08/16 11:28:09;;;;;;;1.10;0.83;;;17.80;99.90;;;;;;5116276;27;20441;-64
2022/08/16 11:31:00;;;;;;;1.57;1.30;;;17.70;99.90;;;;;;5108757;27;20506;-64
2022/08/16 11:33:30;;;;;;;1.30;1.10;;;17.70;99.90;;;;;;5125272;27;20447;-63
2022/08/16 11:36:21;;;;;;;1.07;0.97;;;17.70;99.90;;;;;;5134914;27;20399;-63
2022/08/16 11:38:58;;;;;;;1.10;1.00;;;17.60;99.90;;;;;;5126111;27;20524;-63
2022/08/16 11:41:32;;;;;;;0.93;0.80;;;17.60;99.90;;;;;;5122761;27;20795;-64
2022/08/16 11:44:04;;;;;;;1.13;1.00;;;17.60;99.90;;;;;;5108128;27;20451;-64
2022/08/16 11:46:35;;;;;;;0.80;0.80;;;17.60;99.90;;;;;;5119855;27;20451;-63
2022/08/16 11:49:15;;;;;;;1.33;1.23;;;17.60;99.90;;;;;;5113699;27;20453;-64
2022/08/16 11:51:45;;;;;;;1.17;1.07;;;17.70;99.90;;;;;;5129721;27;20489;-63
2022/08/16 11:54:16;;;;;;;1.37;1.27;;;17.70;99.90;;;;;;5114089;28;20540;-63
2022/08/16 11:56:51;;;;;;;1.37;1.27;;;17.70;99.90;;;;;;5115694;28;20815;-63
2022/08/16 11:59:28;;;;;;;1.00;0.90;;;17.70;99.90;;;;;;5128873;27;20460;-63
2022/08/16 12:02:01;;;;;;;1.17;1.07;;;17.70;99.90;;;;;;5124182;27;20470;-63
2022/08/16 12:04:52;;;;;;;1.67;1.57;;;17.80;99.90;;;;;;5105647;28;20464;-63
2022/08/16 12:07:23;;;;;;;1.63;1.53;;;17.80;99.90;;;;;;5118183;27;20443;-63
2022/08/16 12:09:54;;;;;;;1.77;1.13;;;17.80;99.90;;;;;;5127303;27;20445;-63
2022/08/16 12:12:27;;;;;;;2.50;2.30;;;17.90;99.90;;;;;;5133771;27;20463;-63
2022/08/16 12:15:05;;;;;;;2.27;2.07;;;17.80;99.90;;;;;;5130097;27;20487;-63
2022/08/16 12:17:36;;;;;;;1.50;1.40;;;17.80;99.90;;;;;;5118106;28;20477;-64
2022/08/16 12:20:10;;;;;;;1.40;1.23;;;17.80;99.90;;;;;;5113135;28;20521;-63
2022/08/16 12:22:48;;;;;;;2.00;1.80;;;17.90;99.90;;;;;;5106497;27;21566;-63
2022/08/16 12:25:22;;;;;;;1.83;1.63;;;17.90;99.90;;;;;;5140727;27;20431;-63
2022/08/16 12:27:55;;;;;;;2.23;1.80;;;18.00;99.90;;;;;;5120642;27;20437;-64
2022/08/16 12:30:29;;;;;;;2.40;2.10;;;18.00;99.90;;;;;;5114290;28;20477;-64
2022/08/16 12:33:09;;;;;;;1.73;1.63;;;18.00;99.90;;;;;;5105804;28;20491;-64
2022/08/16 12:35:40;;;;;;;1.83;1.70;;;18.00;99.90;;;;;;5120198;27;20458;-64
2022/08/16 12:38:12;;;;;;;2.17;1.97;;;18.10;99.90;;;;;;5114624;28;20444;-64
2022/08/16 12:41:03;;;;;;;2.30;2.10;;;18.10;99.90;;;;;;5116262;27;20453;-64
2022/08/16 12:43:40;;;;;;;1.90;1.70;;;18.00;99.90;;;;;;5122122;27;20424;-63
2022/08/16 12:46:14;;;;;;;2.10;1.90;;;18.10;99.90;;;;;;5120840;28;20454;-63
2022/08/16 12:48:59;;;;;;;2.33;2.10;;;18.10;99.90;;;;;;5120270;28;20443;-64
2022/08/16 12:51:32;;;;;;;2.77;2.10;;;18.10;99.90;;;;;;5118739;28;20600;-63
2022/08/16 12:54:23;;;;;;;3.47;2.73;;;18.10;99.90;;;;;;5121974;28;20441;-63
2022/08/16 12:56:55;;;;;;;3.40;2.67;;;18.20;99.90;;;;;;5124209;28;20432;-62
2022/08/16 12:59:27;;;;;;;2.70;2.00;;;18.20;99.90;;;;;;5114920;27;20437;-63
2022/08/16 13:02:00;;;;;;;3.30;2.57;;;18.20;99.90;;;;;;5116122;28;20415;-63
2022/08/16 13:04:36;;;;;;;3.30;2.97;;;18.20;99.90;;;;;;5121964;28;20443;-63
2022/08/16 13:07:07;;;;;;;2.67;2.47;;;18.20;99.90;;;;;;5106277;28;20777;-63
2022/08/16 13:09:46;;;;;;;3.77;2.80;;;18.20;99.90;;;;;;5130936;27;20432;-62
2022/08/16 13:12:22;;;;;;;2.40;2.20;;;18.20;99.90;;;;;;5130940;28;20534;-62
2022/08/16 13:14:57;;;;;;;2.80;2.60;;;18.20;99.90;;;;;;5121143;28;20440;-62
2022/08/16 13:17:27;;;;;;;3.10;2.77;;;18.20;99.90;;;;;;5120621;28;20450;-63
2022/08/16 13:19:59;;;;;;;3.07;2.77;;;18.20;99.90;;;;;;5129046;28;20877;-63
2022/08/16 13:22:41;;;;;;;3.43;3.10;;;18.20;99.90;;;;;;5118386;28;20465;-63
2022/08/16 13:25:18;;;;;;;3.00;2.70;;;18.30;99.90;;;;;;5106534;28;20475;-63
2022/08/16 13:27:51;;;;;;;2.67;2.47;;;18.20;99.90;;;;;;5121428;28;20472;-63
2022/08/16 13:30:37;;;;;;;2.30;2.00;;;18.30;99.90;;;;;;5113408;28;20457;-63
2022/08/16 13:33:13;;;;;;;3.07;2.57;;;18.30;99.90;;;;;;5110693;28;20470;-63
2022/08/16 13:35:54;;;;;;;3.17;2.83;;;18.30;99.90;;;;;;5119453;27;20438;-64
2022/08/16 13:38:27;;;;;;;3.17;2.63;;;18.40;99.90;;;;;;5114560;27;20484;-63
2022/08/16 13:41:07;;;;;;;3.10;2.80;;;18.30;99.90;;;;;;5131442;27;20448;-63